sensor_id;sensor_type;location;lat;lon;timestamp;noise_LAeq;noise_LA_min;noise_LA_max;noise_LA01;noise_LA95
79288;Laerm;68737;53.946;27.634;2024-01-07T00:00:07;42.613609;37.632835;54.790245;;
79288;Laerm;68737;53.946;27.634;2024-01-07T00:02:36;45.381882;38.694214;59.246109;;
79288;Laerm;68737;53.946;27.634;2024-01-07T00:05:07;43.101242;38.236435;53.621735;;
79288;Laerm;68737;53.946;27.634;2024-01-07T00:07:36;42.609100;37.789856;55.154648;;
79288;Laerm;68737;53.946;27.634;2024-01-07T00:10:06;43.365227;38.906082;54.560951;;
79288;Laerm;68737;53.946;27.634;2024-01-07T00:12:36;46.284126;38.933807;56.651878;;
79288;Laerm;68737;53.946;27.634;2024-01-07T00:15:06;46.570900;38.095535;60.687794;;
79288;Laerm;68737;53.946;27.634;2024-01-07T00:17:36;43.997147;38.086105;54.411880;;
79288;Laerm;68737;53.946;27.634;2024-01-07T00:20:07;43.074432;38.175842;57.654259;;
79288;Laerm;68737;53.946;27.634;2024-01-07T00:22:36;43.341606;38.290955;53.350517;;
79288;Laerm;68737;53.946;27.634;2024-01-07T00:25:07;43.966080;36.800232;58.656441;;
79288;Laerm;68737;53.946;27.634;2024-01-07T00:27:36;45.590675;37.125412;64.460945;;
79288;Laerm;68737;53.946;27.634;2024-01-07T00:30:06;41.785316;37.116219;64.208931;;
79288;Laerm;68737;53.946;27.634;2024-01-07T00:32:36;44.602081;37.105774;60.653282;;
79288;Laerm;68737;53.946;27.634;2024-01-07T00:35:06;44.451981;37.613380;58.840942;;
79288;Laerm;68737;53.946;27.634;2024-01-07T00:37:36;40.055588;36.856880;50.156189;;
79288;Laerm;68737;53.946;27.634;2024-01-07T00:40:07;43.933014;37.665619;61.932232;;
79288;Laerm;68737;53.946;27.634;2024-01-07T00:42:36;42.825439;37.921684;54.951508;;
79288;Laerm;68737;53.946;27.634;2024-01-07T00:45:07;42.544533;37.456863;54.060425;;
79288;Laerm;68737;53.946;27.634;2024-01-07T00:47:36;43.961205;37.050827;58.977501;;
79288;Laerm;68737;53.946;27.634;2024-01-07T00:50:06;44.092468;38.280624;57.114716;;
79288;Laerm;68737;53.946;27.634;2024-01-07T00:52:36;40.439659;37.377136;48.107101;;
79288;Laerm;68737;53.946;27.634;2024-01-07T00:55:06;41.754829;37.568909;49.602859;;
79288;Laerm;68737;53.946;27.634;2024-01-07T00:57:36;41.974884;37.205513;53.831398;;
79288;Laerm;68737;53.946;27.634;2024-01-07T01:00:06;40.928062;37.216599;51.130135;;
79288;Laerm;68737;53.946;27.634;2024-01-07T01:02:37;43.931168;37.217415;57.051216;;
79288;Laerm;68737;53.946;27.634;2024-01-07T01:05:07;42.700150;37.571152;54.190475;;
79288;Laerm;68737;53.946;27.634;2024-01-07T01:07:36;44.013908;37.816505;57.470985;;
79288;Laerm;68737;53.946;27.634;2024-01-07T01:10:07;44.580460;37.211441;60.166271;;
79288;Laerm;68737;53.946;27.634;2024-01-07T01:12:36;46.857071;38.574219;62.243694;;
79288;Laerm;68737;53.946;27.634;2024-01-07T01:15:06;47.505630;39.584473;56.628212;;
79288;Laerm;68737;53.946;27.634;2024-01-07T01:17:36;46.629288;39.582420;60.393841;;
79288;Laerm;68737;53.946;27.634;2024-01-07T01:20:07;43.126686;38.188515;53.061661;;
79288;Laerm;68737;53.946;27.634;2024-01-07T01:22:36;43.327446;38.204689;54.222542;;
79288;Laerm;68737;53.946;27.634;2024-01-07T01:25:06;44.538353;40.312157;55.036652;;
79288;Laerm;68737;53.946;27.634;2024-01-07T01:27:36;48.462929;40.685684;60.011814;;
79288;Laerm;68737;53.946;27.634;2024-01-07T01:30:07;42.316902;37.966797;47.923920;;
79288;Laerm;68737;53.946;27.634;2024-01-07T01:32:36;50.340469;40.043495;65.826538;;
79288;Laerm;68737;53.946;27.634;2024-01-07T01:35:06;43.088661;38.111534;54.137680;;
79288;Laerm;68737;53.946;27.634;2024-01-07T01:37:36;40.897919;37.093811;48.455437;;
79288;Laerm;68737;53.946;27.634;2024-01-07T01:40:06;44.316116;38.058022;54.677887;;
79288;Laerm;68737;53.946;27.634;2024-01-07T01:42:36;44.080147;38.251076;54.491150;;
79288;Laerm;68737;53.946;27.634;2024-01-07T01:45:06;44.106812;38.498093;55.326241;;
79288;Laerm;68737;53.946;27.634;2024-01-07T01:47:36;42.336678;37.117447;51.047768;;
79288;Laerm;68737;53.946;27.634;2024-01-07T01:50:06;42.142784;38.103600;61.651066;;
79288;Laerm;68737;53.946;27.634;2024-01-07T01:52:36;43.107353;37.881149;54.675560;;
79288;Laerm;68737;53.946;27.634;2024-01-07T01:55:06;44.107246;37.631592;56.725845;;
79288;Laerm;68737;53.946;27.634;2024-01-07T01:57:36;44.128571;37.999550;57.353271;;
79288;Laerm;68737;53.946;27.634;2024-01-07T02:00:06;47.480377;37.652390;63.229759;;
79288;Laerm;68737;53.946;27.634;2024-01-07T02:02:36;44.031906;37.937897;57.698120;;
79288;Laerm;68737;53.946;27.634;2024-01-07T02:05:06;46.267220;37.233360;60.493435;;
79288;Laerm;68737;53.946;27.634;2024-01-07T02:07:36;40.679329;37.297836;48.423500;;
79288;Laerm;68737;53.946;27.634;2024-01-07T02:10:06;46.824570;37.878052;59.343163;;
79288;Laerm;68737;53.946;27.634;2024-01-07T02:12:36;44.518265;38.894348;55.920769;;
79288;Laerm;68737;53.946;27.634;2024-01-07T02:15:06;42.323456;38.421715;50.203300;;
79288;Laerm;68737;53.946;27.634;2024-01-07T02:17:36;43.176346;38.018425;56.099098;;
79288;Laerm;68737;53.946;27.634;2024-01-07T02:20:06;46.975868;38.093239;60.329414;;
79288;Laerm;68737;53.946;27.634;2024-01-07T02:22:36;46.056870;38.704193;58.476524;;
79288;Laerm;68737;53.946;27.634;2024-01-07T02:25:06;45.128120;38.522156;56.863129;;
79288;Laerm;68737;53.946;27.634;2024-01-07T02:27:36;44.976860;39.337433;54.748245;;
79288;Laerm;68737;53.946;27.634;2024-01-07T02:30:06;45.548790;38.591064;56.154320;;
79288;Laerm;68737;53.946;27.634;2024-01-07T02:32:36;41.434334;37.817589;48.714447;;
79288;Laerm;68737;53.946;27.634;2024-01-07T02:35:06;45.900177;37.276367;63.312752;;
79288;Laerm;68737;53.946;27.634;2024-01-07T02:37:36;43.675659;37.870193;55.760857;;
79288;Laerm;68737;53.946;27.634;2024-01-07T02:40:07;44.402176;38.759583;54.873245;;
79288;Laerm;68737;53.946;27.634;2024-01-07T02:42:36;43.882393;37.950294;55.146744;;
79288;Laerm;68737;53.946;27.634;2024-01-07T02:45:08;45.415306;37.198959;61.031731;;
79288;Laerm;68737;53.946;27.634;2024-01-07T02:47:36;45.194901;38.070145;62.333031;;
79288;Laerm;68737;53.946;27.634;2024-01-07T02:50:06;42.599838;37.835617;54.598045;;
79288;Laerm;68737;53.946;27.634;2024-01-07T02:52:36;43.902763;37.801483;55.744347;;
79288;Laerm;68737;53.946;27.634;2024-01-07T02:55:06;43.349014;38.778923;53.424507;;
79288;Laerm;68737;53.946;27.634;2024-01-07T02:57:36;48.209724;39.533882;61.268147;;
79288;Laerm;68737;53.946;27.634;2024-01-07T03:00:06;44.917908;37.457870;56.651665;;
79288;Laerm;68737;53.946;27.634;2024-01-07T03:02:36;42.795647;37.840103;53.213905;;
79288;Laerm;68737;53.946;27.634;2024-01-07T03:05:06;41.880638;37.837570;50.121712;;
79288;Laerm;68737;53.946;27.634;2024-01-07T03:07:37;49.286842;39.098022;59.797642;;
79288;Laerm;68737;53.946;27.634;2024-01-07T03:10:06;47.659317;38.783546;59.476547;;
79288;Laerm;68737;53.946;27.634;2024-01-07T03:12:36;45.855240;39.225243;57.535515;;
79288;Laerm;68737;53.946;27.634;2024-01-07T03:15:06;47.395645;39.659668;59.834335;;
79288;Laerm;68737;53.946;27.634;2024-01-07T03:17:36;44.798912;39.693680;56.034454;;
79288;Laerm;68737;53.946;27.634;2024-01-07T03:20:06;44.295731;39.085754;55.188995;;
79288;Laerm;68737;53.946;27.634;2024-01-07T03:22:36;43.661537;38.632812;54.170410;;
79288;Laerm;68737;53.946;27.634;2024-01-07T03:25:07;42.640549;38.486664;51.003525;;
79288;Laerm;68737;53.946;27.634;2024-01-07T03:27:36;49.236900;39.011627;61.722595;;
79288;Laerm;68737;53.946;27.634;2024-01-07T03:30:06;44.922287;38.814400;57.957321;;
79288;Laerm;68737;53.946;27.634;2024-01-07T03:32:36;47.220818;39.072403;59.859303;;
79288;Laerm;68737;53.946;27.634;2024-01-07T03:35:06;45.861519;38.344421;56.254341;;
79288;Laerm;68737;53.946;27.634;2024-01-07T03:37:36;44.789116;37.982300;58.779945;;
79288;Laerm;68737;53.946;27.634;2024-01-07T03:42:36;50.148895;39.973343;62.635948;;
79288;Laerm;68737;53.946;27.634;2024-01-07T03:45:06;46.019356;39.675194;59.255898;;
79288;Laerm;68737;53.946;27.634;2024-01-07T03:47:36;50.105881;40.503426;64.507080;;
79288;Laerm;68737;53.946;27.634;2024-01-07T03:50:06;44.475159;39.641655;54.203339;;
79288;Laerm;68737;53.946;27.634;2024-01-07T03:52:39;48.428650;39.522812;62.268303;;
79288;Laerm;68737;53.946;27.634;2024-01-07T03:55:06;42.250732;38.968643;48.570732;;
79288;Laerm;68737;53.946;27.634;2024-01-07T03:57:36;43.574341;39.648521;52.128883;;
79288;Laerm;68737;53.946;27.634;2024-01-07T04:00:06;45.254623;40.238159;56.440125;;
79288;Laerm;68737;53.946;27.634;2024-01-07T04:02:36;45.602341;40.558784;58.723053;;
79288;Laerm;68737;53.946;27.634;2024-01-07T04:05:06;49.410248;40.233055;62.840015;;
79288;Laerm;68737;53.946;27.634;2024-01-07T04:07:36;51.325813;40.218590;71.170532;;
79288;Laerm;68737;53.946;27.634;2024-01-07T04:10:06;44.008232;40.521065;49.284340;;
79288;Laerm;68737;53.946;27.634;2024-01-07T04:12:36;45.801941;40.689362;57.979080;;
79288;Laerm;68737;53.946;27.634;2024-01-07T04:15:06;46.412247;40.166969;64.297417;;
79288;Laerm;68737;53.946;27.634;2024-01-07T04:17:36;48.126015;40.842529;62.984222;;
79288;Laerm;68737;53.946;27.634;2024-01-07T04:20:06;49.940750;41.543785;60.061523;;
79288;Laerm;68737;53.946;27.634;2024-01-07T04:22:36;50.937988;42.106354;66.765831;;
79288;Laerm;68737;53.946;27.634;2024-01-07T04:25:06;46.362961;41.329247;57.519417;;
79288;Laerm;68737;53.946;27.634;2024-01-07T04:27:36;50.778557;42.133873;59.639027;;
79288;Laerm;68737;53.946;27.634;2024-01-07T04:30:06;46.627754;41.710648;57.232681;;
79288;Laerm;68737;53.946;27.634;2024-01-07T04:32:36;50.023315;41.979248;62.071693;;
79288;Laerm;68737;53.946;27.634;2024-01-07T04:35:06;50.144623;42.307892;63.211670;;
79288;Laerm;68737;53.946;27.634;2024-01-07T04:37:37;48.863625;42.145676;59.411247;;
79288;Laerm;68737;53.946;27.634;2024-01-07T04:40:06;47.084366;42.093056;56.366768;;
79288;Laerm;68737;53.946;27.634;2024-01-07T04:42:36;49.507927;42.431763;58.161781;;
79288;Laerm;68737;53.946;27.634;2024-01-07T04:45:06;57.256821;42.060532;70.224304;;
79288;Laerm;68737;53.946;27.634;2024-01-07T04:47:36;48.578873;42.544182;63.245781;;
79288;Laerm;68737;53.946;27.634;2024-01-07T04:50:06;51.794472;42.451981;63.808258;;
79288;Laerm;68737;53.946;27.634;2024-01-07T04:52:36;48.590332;41.926048;57.446350;;
79288;Laerm;68737;53.946;27.634;2024-01-07T04:55:06;45.729195;41.895218;55.861023;;
79288;Laerm;68737;53.946;27.634;2024-01-07T04:57:36;50.349266;43.018570;59.560768;;
79288;Laerm;68737;53.946;27.634;2024-01-07T05:00:06;52.188538;44.756371;64.898727;;
79288;Laerm;68737;53.946;27.634;2024-01-07T05:02:36;52.506302;42.847137;62.894012;;
79288;Laerm;68737;53.946;27.634;2024-01-07T05:05:07;51.977036;42.046204;62.144943;;
79288;Laerm;68737;53.946;27.634;2024-01-07T05:07:36;49.699997;42.322113;62.386459;;
79288;Laerm;68737;53.946;27.634;2024-01-07T05:10:06;47.594887;41.337486;58.950623;;
79288;Laerm;68737;53.946;27.634;2024-01-07T05:12:36;48.941780;42.426895;58.563499;;
79288;Laerm;68737;53.946;27.634;2024-01-07T05:15:06;47.911674;41.530746;58.603554;;
79288;Laerm;68737;53.946;27.634;2024-01-07T05:17:36;50.565735;41.240219;62.393791;;
79288;Laerm;68737;53.946;27.634;2024-01-07T05:20:06;49.881081;42.307289;62.068569;;
79288;Laerm;68737;53.946;27.634;2024-01-07T05:22:36;48.392754;41.429329;59.176014;;
79288;Laerm;68737;53.946;27.634;2024-01-07T05:25:06;45.709717;41.620529;52.215973;;
79288;Laerm;68737;53.946;27.634;2024-01-07T05:27:36;49.061043;42.081108;62.074444;;
79288;Laerm;68737;53.946;27.634;2024-01-07T05:30:06;54.933105;42.080139;70.989799;;
79288;Laerm;68737;53.946;27.634;2024-01-07T05:32:36;48.849709;43.558891;64.446442;;
79288;Laerm;68737;53.946;27.634;2024-01-07T05:35:06;49.250526;43.447891;59.450432;;
79288;Laerm;68737;53.946;27.634;2024-01-07T05:37:36;50.898964;41.960991;66.932983;;
79288;Laerm;68737;53.946;27.634;2024-01-07T05:40:06;52.397270;42.523438;64.695419;;
79288;Laerm;68737;53.946;27.634;2024-01-07T05:42:36;51.801636;42.230804;63.198792;;
79288;Laerm;68737;53.946;27.634;2024-01-07T05:45:06;50.630348;43.168091;62.006767;;
79288;Laerm;68737;53.946;27.634;2024-01-07T05:47:36;54.340332;43.277725;65.405296;;
79288;Laerm;68737;53.946;27.634;2024-01-07T05:50:06;47.861496;42.668091;59.446960;;
79288;Laerm;68737;53.946;27.634;2024-01-07T05:52:36;50.399277;43.516914;60.246674;;
79288;Laerm;68737;53.946;27.634;2024-01-07T05:55:06;50.838242;44.737587;64.015244;;
79288;Laerm;68737;53.946;27.634;2024-01-07T05:57:36;51.495850;43.866882;62.963989;;
79288;Laerm;68737;53.946;27.634;2024-01-07T06:00:06;49.244064;42.429665;59.946182;;
79288;Laerm;68737;53.946;27.634;2024-01-07T06:02:36;50.943443;42.500496;63.136742;;
79288;Laerm;68737;53.946;27.634;2024-01-07T06:05:06;49.741623;43.624710;61.317802;;
79288;Laerm;68737;53.946;27.634;2024-01-07T06:07:36;50.264511;44.206955;65.637978;;
79288;Laerm;68737;53.946;27.634;2024-01-07T06:10:06;52.454536;43.849167;65.615685;;
79288;Laerm;68737;53.946;27.634;2024-01-07T06:12:36;53.235458;45.124832;67.447121;;
79288;Laerm;68737;53.946;27.634;2024-01-07T06:15:06;53.672066;46.493896;65.120430;;
79288;Laerm;68737;53.946;27.634;2024-01-07T06:17:36;52.850517;47.230171;66.323128;;
79288;Laerm;68737;53.946;27.634;2024-01-07T06:20:06;52.524414;45.299713;60.413307;;
79288;Laerm;68737;53.946;27.634;2024-01-07T06:22:36;51.680016;44.526749;63.967175;;
79288;Laerm;68737;53.946;27.634;2024-01-07T06:25:06;57.344368;44.621292;71.084259;;
79288;Laerm;68737;53.946;27.634;2024-01-07T06:27:36;49.322243;43.204407;56.943558;;
79288;Laerm;68737;53.946;27.634;2024-01-07T06:30:06;53.326782;43.002518;68.373146;;
79288;Laerm;68737;53.946;27.634;2024-01-07T06:32:36;50.587692;43.258987;60.675476;;
79288;Laerm;68737;53.946;27.634;2024-01-07T06:35:06;50.805389;44.027344;63.390594;;
79288;Laerm;68737;53.946;27.634;2024-01-07T06:37:36;54.046593;44.489708;72.038643;;
79288;Laerm;68737;53.946;27.634;2024-01-07T06:40:06;51.690086;44.608101;61.518314;;
79288;Laerm;68737;53.946;27.634;2024-01-07T06:42:36;55.634529;44.331345;75.535294;;
79288;Laerm;68737;53.946;27.634;2024-01-07T06:45:06;50.682106;44.568588;61.521103;;
79288;Laerm;68737;53.946;27.634;2024-01-07T06:47:36;53.133675;43.858719;68.429321;;
79288;Laerm;68737;53.946;27.634;2024-01-07T06:50:06;55.470558;43.423752;68.842529;;
79288;Laerm;68737;53.946;27.634;2024-01-07T06:52:36;54.138962;44.856575;66.525314;;
79288;Laerm;68737;53.946;27.634;2024-01-07T06:55:06;52.745110;44.506523;65.592407;;
79288;Laerm;68737;53.946;27.634;2024-01-07T06:57:36;51.385498;45.887276;58.656990;;
79288;Laerm;68737;53.946;27.634;2024-01-07T07:00:06;54.012909;46.386932;67.571686;;
79288;Laerm;68737;53.946;27.634;2024-01-07T07:02:36;56.580597;45.909485;68.192429;;
79288;Laerm;68737;53.946;27.634;2024-01-07T07:05:06;54.314682;44.825211;76.135582;;
79288;Laerm;68737;53.946;27.634;2024-01-07T07:07:36;54.537025;44.914841;74.554497;;
79288;Laerm;68737;53.946;27.634;2024-01-07T07:10:06;53.941483;43.664185;73.560570;;
79288;Laerm;68737;53.946;27.634;2024-01-07T07:12:36;49.900940;43.882362;63.599007;;
79288;Laerm;68737;53.946;27.634;2024-01-07T07:15:06;50.168495;43.800850;60.625351;;
79288;Laerm;68737;53.946;27.634;2024-01-07T07:17:38;50.772102;45.049850;59.737637;;
79288;Laerm;68737;53.946;27.634;2024-01-07T07:20:06;51.739883;45.036774;64.663177;;
79288;Laerm;68737;53.946;27.634;2024-01-07T07:22:36;54.115341;44.930275;69.131699;;
79288;Laerm;68737;53.946;27.634;2024-01-07T07:25:06;52.349876;44.752945;63.510643;;
79288;Laerm;68737;53.946;27.634;2024-01-07T07:27:36;49.259071;42.782684;59.461906;;
79288;Laerm;68737;53.946;27.634;2024-01-07T07:30:07;50.663155;44.236771;59.333641;;
79288;Laerm;68737;53.946;27.634;2024-01-07T07:32:38;49.348679;43.300964;58.523811;;
79288;Laerm;68737;53.946;27.634;2024-01-07T07:35:08;55.229172;43.564163;67.715393;;
79288;Laerm;68737;53.946;27.634;2024-01-07T07:37:36;50.436951;43.337540;61.605049;;
79288;Laerm;68737;53.946;27.634;2024-01-07T07:40:06;50.888580;43.906815;76.675873;;
79288;Laerm;68737;53.946;27.634;2024-01-07T07:42:36;50.894775;44.667595;59.973991;;
79288;Laerm;68737;53.946;27.634;2024-01-07T07:45:06;51.453987;45.488548;64.002281;;
79288;Laerm;68737;53.946;27.634;2024-01-07T07:47:36;51.412216;45.079346;62.246643;;
79288;Laerm;68737;53.946;27.634;2024-01-07T07:50:06;53.320282;45.330231;67.860306;;
79288;Laerm;68737;53.946;27.634;2024-01-07T07:52:36;51.511673;44.127335;61.683456;;
79288;Laerm;68737;53.946;27.634;2024-01-07T07:55:06;51.715599;42.766907;63.454430;;
79288;Laerm;68737;53.946;27.634;2024-01-07T07:57:36;54.468338;46.612122;64.105515;;
79288;Laerm;68737;53.946;27.634;2024-01-07T08:00:06;53.399918;45.968025;66.555298;;
79288;Laerm;68737;53.946;27.634;2024-01-07T08:02:36;54.354225;46.589569;65.531219;;
79288;Laerm;68737;53.946;27.634;2024-01-07T08:05:10;52.068680;45.990158;63.782528;;
79288;Laerm;68737;53.946;27.634;2024-01-07T08:07:36;53.680061;45.882317;63.640949;;
79288;Laerm;68737;53.946;27.634;2024-01-07T08:10:07;51.052521;45.044617;65.820442;;
79288;Laerm;68737;53.946;27.634;2024-01-07T08:12:36;52.339539;44.471817;68.460472;;
79288;Laerm;68737;53.946;27.634;2024-01-07T08:15:06;54.101898;45.907318;63.107113;;
79288;Laerm;68737;53.946;27.634;2024-01-07T08:17:35;64.957504;46.516373;89.604538;;
79288;Laerm;68737;53.946;27.634;2024-01-07T08:20:07;66.637787;46.129562;93.802780;;
79288;Laerm;68737;53.946;27.634;2024-01-07T08:22:36;53.907349;47.124847;65.839622;;
79288;Laerm;68737;53.946;27.634;2024-01-07T08:25:06;59.481686;46.959625;83.145508;;
79288;Laerm;68737;53.946;27.634;2024-01-07T08:27:35;54.706779;45.562004;64.855118;;
79288;Laerm;68737;53.946;27.634;2024-01-07T08:30:06;53.486794;45.081711;62.304008;;
79288;Laerm;68737;53.946;27.634;2024-01-07T08:32:35;60.196033;47.964897;83.586578;;
79288;Laerm;68737;53.946;27.634;2024-01-07T08:35:06;55.080009;48.600121;67.215195;;
79288;Laerm;68737;53.946;27.634;2024-01-07T08:37:35;53.656960;47.151848;62.179760;;
79288;Laerm;68737;53.946;27.634;2024-01-07T08:40:06;53.964241;45.591110;67.637444;;
79288;Laerm;68737;53.946;27.634;2024-01-07T08:42:36;54.524170;46.249062;64.832047;;
79288;Laerm;68737;53.946;27.634;2024-01-07T08:45:06;54.345108;46.131180;65.981689;;
79288;Laerm;68737;53.946;27.634;2024-01-07T08:47:35;55.342125;47.708328;71.475372;;
79288;Laerm;68737;53.946;27.634;2024-01-07T08:50:06;56.007820;46.707771;68.178398;;
79288;Laerm;68737;53.946;27.634;2024-01-07T08:52:35;59.898941;45.558411;76.436966;;
79288;Laerm;68737;53.946;27.634;2024-01-07T08:55:06;55.081902;47.035049;67.067787;;
79288;Laerm;68737;53.946;27.634;2024-01-07T08:57:36;54.376907;47.419380;64.570465;;
79288;Laerm;68737;53.946;27.634;2024-01-07T09:00:06;58.174553;46.199402;73.287407;;
79288;Laerm;68737;53.946;27.634;2024-01-07T09:02:35;54.028954;46.285332;64.363937;;
79288;Laerm;68737;53.946;27.634;2024-01-07T09:05:06;55.872673;45.490028;76.526596;;
79288;Laerm;68737;53.946;27.634;2024-01-07T09:07:35;57.821327;46.779518;77.527191;;
79288;Laerm;68737;53.946;27.634;2024-01-07T09:10:06;54.900429;44.701462;73.176544;;
79288;Laerm;68737;53.946;27.634;2024-01-07T09:12:36;52.467133;44.996368;61.286823;;
79288;Laerm;68737;53.946;27.634;2024-01-07T09:15:06;52.844543;46.338104;60.066158;;
79288;Laerm;68737;53.946;27.634;2024-01-07T09:17:36;54.816376;45.480789;72.515137;;
79288;Laerm;68737;53.946;27.634;2024-01-07T09:20:07;53.954979;45.949341;63.574856;;
79288;Laerm;68737;53.946;27.634;2024-01-07T09:22:35;54.429604;46.185486;63.467716;;
79288;Laerm;68737;53.946;27.634;2024-01-07T09:25:06;59.953705;45.270897;75.077988;;
79288;Laerm;68737;53.946;27.634;2024-01-07T09:27:35;60.364281;46.248672;75.233093;;
79288;Laerm;68737;53.946;27.634;2024-01-07T09:30:06;55.393944;45.062019;67.579254;;
79288;Laerm;68737;53.946;27.634;2024-01-07T09:32:35;55.644547;46.034332;74.487610;;
79288;Laerm;68737;53.946;27.634;2024-01-07T09:35:06;52.851059;45.173264;62.977081;;
79288;Laerm;68737;53.946;27.634;2024-01-07T09:37:35;55.403107;45.368462;63.486122;;
79288;Laerm;68737;53.946;27.634;2024-01-07T09:40:06;52.781776;45.044647;60.483273;;
79288;Laerm;68737;53.946;27.634;2024-01-07T09:42:35;55.958443;46.390038;69.264313;;
79288;Laerm;68737;53.946;27.634;2024-01-07T09:45:06;54.446640;45.464516;64.591919;;
79288;Laerm;68737;53.946;27.634;2024-01-07T09:47:35;54.717529;45.069878;65.815224;;
79288;Laerm;68737;53.946;27.634;2024-01-07T09:50:06;53.737946;46.645706;64.082993;;
79288;Laerm;68737;53.946;27.634;2024-01-07T09:52:35;53.580574;44.870262;65.418060;;
79288;Laerm;68737;53.946;27.634;2024-01-07T09:55:06;54.763832;45.804169;63.328445;;
79288;Laerm;68737;53.946;27.634;2024-01-07T09:57:36;55.513191;47.365494;67.488960;;
79288;Laerm;68737;53.946;27.634;2024-01-07T10:00:06;53.430527;45.404243;66.718338;;
79288;Laerm;68737;53.946;27.634;2024-01-07T10:02:35;57.311684;45.193382;73.487251;;
79288;Laerm;68737;53.946;27.634;2024-01-07T10:05:06;55.614288;46.196465;65.877426;;
79288;Laerm;68737;53.946;27.634;2024-01-07T10:07:35;54.512955;45.831375;70.209129;;
79288;Laerm;68737;53.946;27.634;2024-01-07T10:12:35;53.323128;44.878998;65.276016;;
79288;Laerm;68737;53.946;27.634;2024-01-07T10:15:06;61.800739;44.782227;82.787216;;
79288;Laerm;68737;53.946;27.634;2024-01-07T10:17:35;52.377953;45.112518;61.776421;;
79288;Laerm;68737;53.946;27.634;2024-01-07T10:20:06;53.306038;44.339691;64.088051;;
79288;Laerm;68737;53.946;27.634;2024-01-07T10:22:40;53.823914;45.006226;62.971867;;
79288;Laerm;68737;53.946;27.634;2024-01-07T10:25:06;51.584473;43.801888;66.452545;;
79288;Laerm;68737;53.946;27.634;2024-01-07T10:27:36;58.430191;45.002899;72.252197;;
79288;Laerm;68737;53.946;27.634;2024-01-07T10:30:06;53.392822;45.495888;68.450424;;
79288;Laerm;68737;53.946;27.634;2024-01-07T10:32:35;51.970093;44.041206;62.369591;;
79288;Laerm;68737;53.946;27.634;2024-01-07T10:35:06;53.781799;45.035980;65.713577;;
79288;Laerm;68737;53.946;27.634;2024-01-07T10:37:35;53.423904;44.365005;71.133835;;
79288;Laerm;68737;53.946;27.634;2024-01-07T10:40:06;55.696701;44.589577;66.136971;;
79288;Laerm;68737;53.946;27.634;2024-01-07T10:42:35;53.906197;43.354469;72.233521;;
79288;Laerm;68737;53.946;27.634;2024-01-07T10:45:06;53.983040;45.296921;62.409729;;
79288;Laerm;68737;53.946;27.634;2024-01-07T10:47:35;55.217094;45.836235;63.635357;;
79288;Laerm;68737;53.946;27.634;2024-01-07T10:50:05;56.753746;44.394936;73.370956;;
79288;Laerm;68737;53.946;27.634;2024-01-07T10:52:35;52.566803;42.817085;62.492973;;
79288;Laerm;68737;53.946;27.634;2024-01-07T11:00:06;54.540146;46.225624;68.672043;;
79288;Laerm;68737;53.946;27.634;2024-01-07T11:02:37;54.128929;45.916031;64.446358;;
79288;Laerm;68737;53.946;27.634;2024-01-07T11:05:08;55.491837;44.973206;65.929352;;
79288;Laerm;68737;53.946;27.634;2024-01-07T11:07:41;54.742401;46.918900;66.850266;;
79288;Laerm;68737;53.946;27.634;2024-01-07T11:12:35;53.573959;44.569626;67.960938;;
79288;Laerm;68737;53.946;27.634;2024-01-07T11:15:06;55.772598;45.281921;65.144241;;
79288;Laerm;68737;53.946;27.634;2024-01-07T11:20:06;52.481102;43.978043;67.608749;;
79288;Laerm;68737;53.946;27.634;2024-01-07T11:22:35;53.557198;43.547058;64.149826;;
79288;Laerm;68737;53.946;27.634;2024-01-07T11:25:30;56.220993;42.514130;75.601898;;
79288;Laerm;68737;53.946;27.634;2024-01-07T11:27:35;55.107590;43.151886;70.021111;;
79288;Laerm;68737;53.946;27.634;2024-01-07T11:30:07;53.375725;43.714928;61.622963;;
79288;Laerm;68737;53.946;27.634;2024-01-07T11:32:35;54.319389;43.363144;63.591949;;
79288;Laerm;68737;53.946;27.634;2024-01-07T11:35:05;55.158066;44.453575;73.289169;;
79288;Laerm;68737;53.946;27.634;2024-01-07T11:37:35;51.836678;43.227432;64.585327;;
79288;Laerm;68737;53.946;27.634;2024-01-07T11:40:06;54.039230;45.478134;65.096046;;
79288;Laerm;68737;53.946;27.634;2024-01-07T11:42:35;52.792114;43.253944;62.480289;;
79288;Laerm;68737;53.946;27.634;2024-01-07T11:45:06;53.302292;43.834717;63.086094;;
79288;Laerm;68737;53.946;27.634;2024-01-07T11:47:35;53.160545;44.811897;63.567749;;
79288;Laerm;68737;53.946;27.634;2024-01-07T11:50:06;54.159645;45.001106;63.569656;;
79288;Laerm;68737;53.946;27.634;2024-01-07T11:52:35;55.013527;45.048561;76.355667;;
79288;Laerm;68737;53.946;27.634;2024-01-07T11:55:05;55.179016;44.741508;64.090874;;
79288;Laerm;68737;53.946;27.634;2024-01-07T11:57:35;54.540520;45.861572;61.400593;;
79288;Laerm;68737;53.946;27.634;2024-01-07T12:00:06;54.648727;45.550476;65.431580;;
79288;Laerm;68737;53.946;27.634;2024-01-07T12:02:35;54.188927;45.720047;63.501820;;